»·PEaware :: N6507W KSBP-L52

N6507W :: KSBP-L52

FLIGHT INFORMATION

Flight Status: Arrived
Operator: Privately registered:
United States
More flights under this callsign
Pilot: Jukka N. (18040)
Aircraft: PIPER PA-30 TWIN COMANCHE
(PA30)
More flights by this aircraft type
Origin: KSBP San Luis Co Regl
United States
Destination: L52 Oceano Co
United States
More flights between these airports :: More routes between these airports
Route:
File this flight plan on PilotEdge
Remarks: ENGLISH ISN'T NATIVE
Altitude:
(Current/Filed)
3,200ft
Speed:
(Current/Filed)
160kts
Departed: 11-Mar-19 11:44 AM
Arrived: 11-Mar-19 11:59 AM
Distance/Time
Traveled:
8nm/0:15
Distance/Time
To Go:
Arrived

Flight Plot

Page will automatically refresh every two minutes.


Map Options




Map Legend


Flown Route
Filed Route
Departure Airport
Arrival Airport
Navaid (VOR, NDB)
Fix

Horizontal Profiles

Position Reports

Time Latitude Longitude Heading Altitude Ground
Speed
11-Mar-19 11:10 35.238721 -120.639363 258 215ft 0kts
11-Mar-19 11:11 35.238721 -120.639363 258 215ft 0kts
11-Mar-19 11:12 35.238721 -120.639363 258 215ft 0kts
11-Mar-19 11:13 35.238721 -120.639363 258 215ft 0kts
11-Mar-19 11:14 35.238721 -120.639363 258 215ft 0kts
11-Mar-19 11:15 35.238721 -120.639363 258 215ft 0kts
11-Mar-19 11:16 35.238721 -120.639363 258 215ft 0kts
11-Mar-19 11:17 35.238721 -120.639363 258 215ft 0kts
11-Mar-19 11:18 35.238721 -120.639363 258 215ft 0kts
11-Mar-19 11:19 35.238721 -120.639363 258 215ft 0kts
11-Mar-19 11:20 35.238721 -120.639363 258 215ft 0kts
11-Mar-19 11:21 35.238721 -120.639363 258 215ft 0kts
11-Mar-19 11:22 35.238721 -120.639363 258 215ft 0kts
11-Mar-19 11:23 35.238721 -120.639363 258 215ft 0kts
11-Mar-19 11:24 35.238721 -120.639363 258 215ft 0kts
11-Mar-19 11:25 35.238721 -120.639363 258 215ft 0kts
11-Mar-19 11:26 35.238721 -120.639363 258 215ft 0kts
11-Mar-19 11:27 35.238721 -120.639363 258 215ft 0kts
11-Mar-19 11:28 35.238721 -120.639363 258 215ft 0kts
11-Mar-19 11:29 35.238721 -120.639363 258 215ft 0kts
11-Mar-19 11:30 35.238721 -120.639363 258 215ft 0kts
11-Mar-19 11:31 35.238721 -120.639363 258 215ft 0kts
11-Mar-19 11:32 35.238721 -120.639363 258 215ft 0kts
11-Mar-19 11:33 35.238721 -120.639363 258 215ft 0kts
11-Mar-19 11:34 35.238721 -120.639363 258 215ft 0kts
11-Mar-19 11:35 35.238721 -120.639363 258 215ft 0kts
11-Mar-19 11:36 35.238721 -120.639363 258 215ft 0kts
11-Mar-19 11:37 35.238721 -120.639363 258 215ft 0kts
11-Mar-19 11:38 35.239325 -120.642650 307 215ft 28kts
11-Mar-19 11:39 35.242404 -120.648621 242 215ft 0kts
11-Mar-19 11:40 35.242404 -120.648621 242 215ft 0kts
11-Mar-19 11:41 35.242404 -120.648621 242 215ft 0kts
11-Mar-19 11:42 35.241232 -120.647810 125 215ft 29kts
11-Mar-19 11:43 35.224951 -120.622105 118 1212ft 111kts
11-Mar-19 11:44 35.250913 -120.621573 335 2389ft 142kts
11-Mar-19 11:45 35.281648 -120.604670 68 3558ft 127kts
11-Mar-19 11:46 35.290052 -120.560485 85 4447ft 138kts
11-Mar-19 11:47 35.278961 -120.513216 118 4660ft 159kts
11-Mar-19 11:48 35.249594 -120.473536 150 4625ft 163kts
11-Mar-19 11:49 35.205957 -120.458081 162 4532ft 170kts
11-Mar-19 11:50 35.163842 -120.450860 181 3318ft 148kts
11-Mar-19 11:51 35.130433 -120.460679 200 2868ft 118kts
11-Mar-19 11:52 35.111420 -120.489279 274 2564ft 119kts
11-Mar-19 11:53 35.100304 -120.525299 227 1559ft 116kts
11-Mar-19 11:54 35.087936 -120.558294 283 1068ft 110kts
11-Mar-19 11:55 35.086047 -120.599157 246 587ft 139kts
11-Mar-19 11:56 35.061964 -120.610720 87 871ft 97kts
11-Mar-19 11:57 35.090579 -120.608129 347 474ft 99kts
11-Mar-19 11:58 35.103049 -120.625094 303 17ft 14kts
11-Mar-19 11:59 35.103085 -120.623959 205 17ft 0kts
11-Mar-19 12:00 35.103085 -120.623959 205 17ft 0kts
11-Mar-19 12:01 35.103085 -120.623959 205 17ft 0kts
11-Mar-19 12:02 35.103085 -120.623959 205 17ft 0kts
11-Mar-19 12:03 35.103085 -120.623959 205 17ft 0kts
11-Mar-19 12:04 35.103085 -120.623959 205 17ft 0kts
11-Mar-19 12:05 35.103085 -120.623959 205 17ft 0kts
11-Mar-19 12:06 35.103085 -120.623959 205 17ft 0kts

Navigation Log

Ident Type
Flight plan parsing failed, navigation log unavailable